createdAt,value
2022-12-06T00:01:26.691Z,19.57
2022-12-06T00:03:57.504Z,19.33
2022-12-06T00:06:27.736Z,19.23
2022-12-06T00:08:56.036Z,20.23
2022-12-06T00:11:26.139Z,20.17
2022-12-06T00:13:55.026Z,20.23
2022-12-06T00:16:23.043Z,19.03
2022-12-06T00:18:50.212Z,19.20
2022-12-06T00:21:23.116Z,19.33
2022-12-06T00:23:52.760Z,18.80
2022-12-06T00:26:20.464Z,20.17
2022-12-06T00:28:47.915Z,19.40
2022-12-06T00:31:19.941Z,20.07
2022-12-06T00:33:46.845Z,20.70
2022-12-06T00:36:16.871Z,20.73
2022-12-06T00:38:44.362Z,19.90
2022-12-06T00:41:17.676Z,19.47
2022-12-06T00:43:45.253Z,21.70
2022-12-06T00:46:24.035Z,20.43
2022-12-06T00:48:51.830Z,20.23
2022-12-06T00:51:20.185Z,19.77
2022-12-06T00:53:47.465Z,20.60
2022-12-06T00:56:15.525Z,20.27
2022-12-06T00:58:43.024Z,20.80
2022-12-06T01:01:16.185Z,20.00
2022-12-06T01:03:44.905Z,22.17
2022-12-06T01:06:14.849Z,20.63
2022-12-06T01:08:43.782Z,21.40
2022-12-06T01:11:13.110Z,20.43
2022-12-06T01:13:40.210Z,20.63
2022-12-06T01:16:15.469Z,19.73
2022-12-06T01:18:43.398Z,20.07
2022-12-06T01:21:20.534Z,19.10
2022-12-06T01:23:48.422Z,19.47
2022-12-06T01:26:25.028Z,21.53
2022-12-06T01:28:52.273Z,20.17
2022-12-06T01:31:19.378Z,20.03
2022-12-06T01:33:46.554Z,19.23
2022-12-06T01:36:21.440Z,20.47
2022-12-06T01:38:58.025Z,19.30
2022-12-06T01:41:26.809Z,20.40
2022-12-06T01:43:54.640Z,18.87
2022-12-06T01:46:48.034Z,19.60
2022-12-06T01:49:26.571Z,19.93
2022-12-06T01:52:00.647Z,18.37
2022-12-06T01:54:28.764Z,18.87
2022-12-06T01:56:57.892Z,20.57
2022-12-06T01:59:26.334Z,20.37
2022-12-06T02:01:53.929Z,20.37
2022-12-06T02:04:21.561Z,19.20
2022-12-06T02:06:49.144Z,19.10
2022-12-06T02:09:17.544Z,20.40
2022-12-06T02:11:45.951Z,21.40
2022-12-06T02:14:17.838Z,20.03
2022-12-06T02:16:50.806Z,18.33
2022-12-06T02:19:36.663Z,20.03
2022-12-06T02:22:35.442Z,20.33
2022-12-06T02:25:14.266Z,21.23
2022-12-06T02:27:54.594Z,21.73
2022-12-06T02:30:34.993Z,20.97
2022-12-06T02:33:08.860Z,20.73
2022-12-06T02:35:41.068Z,21.60
2022-12-06T02:38:34.747Z,19.93
2022-12-06T02:41:08.350Z,20.20
2022-12-06T02:43:42.466Z,19.63
2022-12-06T02:46:11.181Z,19.73
2022-12-06T02:48:39.228Z,19.93
2022-12-06T02:51:16.013Z,20.20
2022-12-06T02:53:51.058Z,20.47
2022-12-06T02:56:19.858Z,20.73
2022-12-06T02:58:47.343Z,20.43
2022-12-06T03:01:25.464Z,18.17
2022-12-06T03:04:35.011Z,20.40
2022-12-06T03:07:04.560Z,19.87
2022-12-06T03:09:55.464Z,20.50
2022-12-06T03:12:30.699Z,20.53
2022-12-06T03:15:11.111Z,20.77
2022-12-06T03:17:43.917Z,20.77
2022-12-06T03:20:42.703Z,21.10
2022-12-06T03:23:21.993Z,17.60
2022-12-06T03:25:51.302Z,19.13
2022-12-06T03:28:21.853Z,18.93
2022-12-06T03:30:51.789Z,19.27
2022-12-06T03:33:23.561Z,19.93
2022-12-06T03:35:54.060Z,19.80
2022-12-06T03:38:35.654Z,20.90
2022-12-06T03:41:06.164Z,20.17
2022-12-06T03:43:33.893Z,20.30
2022-12-06T03:46:12.750Z,20.00
2022-12-06T03:48:43.089Z,19.20
2022-12-06T03:51:19.906Z,20.30
2022-12-06T03:53:56.455Z,20.53
2022-12-06T03:56:24.437Z,21.93
2022-12-06T03:58:51.736Z,20.73
2022-12-06T04:01:18.615Z,21.33
2022-12-06T04:03:45.816Z,19.77
2022-12-06T04:06:13.333Z,19.07
2022-12-06T04:08:40.538Z,22.50
2022-12-06T04:11:07.620Z,20.20
2022-12-06T04:13:35.750Z,19.43
2022-12-06T04:16:03.290Z,20.57
2022-12-06T04:18:30.212Z,21.60
2022-12-06T04:21:20.910Z,20.93
2022-12-06T04:23:50.741Z,19.73
2022-12-06T04:26:22.648Z,20.37
2022-12-06T04:29:11.048Z,19.80
2022-12-06T04:31:58.126Z,21.10
2022-12-06T04:34:43.390Z,19.17
2022-12-06T04:37:28.762Z,19.37
2022-12-06T04:39:55.874Z,20.27
2022-12-06T04:42:41.353Z,20.30
2022-12-06T04:45:08.708Z,20.70
2022-12-06T04:47:35.760Z,19.33
2022-12-06T04:50:02.949Z,22.20
2022-12-06T04:52:35.227Z,21.63
2022-12-06T04:55:03.188Z,20.60
2022-12-06T04:57:31.162Z,20.27
2022-12-06T04:59:58.589Z,20.30
2022-12-06T05:02:25.695Z,21.43
2022-12-06T05:04:52.536Z,21.00
2022-12-06T05:07:19.366Z,21.53
2022-12-06T05:09:46.214Z,20.70
2022-12-06T05:12:13.045Z,20.30
2022-12-06T05:14:39.929Z,20.53
2022-12-06T05:17:06.936Z,20.20
2022-12-06T05:19:33.947Z,19.93
2022-12-06T05:22:00.810Z,20.73
2022-12-06T05:24:27.570Z,19.47
2022-12-06T05:26:54.429Z,19.57
2022-12-06T05:29:21.296Z,19.93
2022-12-06T05:31:48.293Z,18.37
2022-12-06T05:34:15.360Z,19.63
2022-12-06T05:36:45.884Z,18.83
2022-12-06T05:39:12.982Z,20.00
2022-12-06T05:41:39.779Z,20.57
2022-12-06T05:44:06.654Z,18.30
2022-12-06T05:46:33.476Z,20.23
2022-12-06T05:49:00.333Z,19.30
2022-12-06T05:51:27.160Z,19.87
2022-12-06T05:53:54.338Z,20.87
2022-12-06T05:56:21.156Z,21.63
2022-12-06T05:58:47.990Z,20.57
2022-12-06T06:01:14.765Z,21.13
2022-12-06T06:03:47.233Z,20.23
2022-12-06T06:06:15.254Z,20.23
2022-12-06T06:08:42.103Z,17.37
2022-12-06T06:11:08.884Z,19.67
2022-12-06T06:13:35.720Z,20.03
2022-12-06T06:16:02.582Z,19.00
2022-12-06T06:18:29.408Z,18.57
2022-12-06T06:20:59.029Z,18.47
2022-12-06T06:23:27.233Z,17.57
2022-12-06T06:25:54.766Z,18.43
2022-12-06T06:28:22.315Z,17.67
2022-12-06T06:30:49.448Z,18.17
2022-12-06T06:33:16.635Z,17.70
2022-12-06T06:35:44.042Z,16.37
2022-12-06T06:38:10.923Z,14.90
2022-12-06T06:40:37.783Z,17.33
2022-12-06T06:43:21.100Z,15.50
2022-12-06T06:46:02.207Z,14.70
2022-12-06T06:48:34.824Z,15.13
2022-12-06T06:51:08.088Z,14.43
2022-12-06T06:53:35.306Z,14.27
2022-12-06T06:56:03.112Z,14.80
2022-12-06T06:58:30.352Z,15.97
2022-12-06T07:00:59.696Z,16.57
2022-12-06T07:03:27.516Z,15.20
2022-12-06T07:06:04.469Z,16.33
2022-12-06T07:08:32.391Z,14.90
2022-12-06T07:10:59.604Z,15.57
2022-12-06T07:13:28.120Z,16.03
2022-12-06T07:15:56.597Z,15.20
2022-12-06T07:18:25.156Z,17.83
2022-12-06T07:21:03.998Z,18.70
2022-12-06T07:23:35.091Z,19.40
2022-12-06T07:26:12.879Z,17.90
2022-12-06T07:28:42.151Z,17.73
2022-12-06T07:31:14.050Z,15.67
2022-12-06T07:33:42.887Z,16.53
2022-12-06T07:36:12.878Z,13.97
2022-12-06T07:38:41.764Z,14.97
2022-12-06T07:41:30.330Z,15.30
2022-12-06T07:44:17.268Z,14.30
2022-12-06T07:46:44.466Z,14.83
2022-12-06T07:49:11.521Z,15.97
2022-12-06T07:51:40.396Z,15.17
2022-12-06T07:54:07.989Z,14.53
2022-12-06T07:56:35.897Z,12.97
2022-12-06T07:59:03.035Z,13.23
2022-12-06T08:01:29.983Z,13.20
2022-12-06T08:04:00.331Z,14.83
2022-12-06T08:06:28.029Z,15.67
2022-12-06T08:08:54.980Z,14.57
2022-12-06T08:11:23.003Z,13.37
2022-12-06T08:13:50.238Z,11.50
2022-12-06T08:16:18.129Z,12.20
2022-12-06T08:18:45.300Z,13.70
2022-12-06T08:21:13.450Z,12.37
2022-12-06T08:23:40.361Z,14.93
2022-12-06T08:26:10.127Z,14.27
2022-12-06T08:28:38.297Z,13.93
2022-12-06T08:31:10.584Z,13.73
2022-12-06T08:33:38.814Z,12.60
2022-12-06T08:36:14.713Z,10.73
2022-12-06T08:38:42.308Z,12.20
2022-12-06T08:41:30.361Z,11.90
2022-12-06T08:43:59.593Z,12.33
2022-12-06T08:46:27.774Z,13.07
2022-12-06T08:48:54.878Z,11.47
2022-12-06T08:51:22.620Z,13.63
2022-12-06T08:53:49.430Z,13.07
2022-12-06T08:56:16.374Z,18.77
2022-12-06T08:58:43.470Z,17.37
2022-12-06T09:01:16.108Z,12.67
2022-12-06T09:03:43.441Z,11.70
2022-12-06T09:06:11.247Z,16.10
2022-12-06T09:08:38.808Z,13.17
2022-12-06T09:11:07.765Z,12.33
2022-12-06T09:13:36.551Z,11.50
2022-12-06T09:16:08.394Z,15.67
2022-12-06T09:18:35.603Z,15.47
2022-12-06T09:21:17.244Z,13.73
2022-12-06T09:23:44.414Z,13.17
2022-12-06T09:26:11.856Z,11.83
2022-12-06T09:28:41.579Z,11.97
2022-12-06T09:31:09.871Z,12.53
2022-12-06T09:33:38.574Z,11.93
2022-12-06T09:36:14.926Z,12.33
2022-12-06T09:38:43.156Z,13.77
2022-12-06T09:41:19.148Z,13.23
2022-12-06T09:44:22.686Z,11.67
2022-12-06T09:47:07.702Z,11.60
2022-12-06T09:49:51.532Z,12.83
2022-12-06T09:52:36.910Z,12.57
2022-12-06T09:55:08.835Z,16.27
2022-12-06T09:58:08.732Z,20.87
2022-12-06T10:00:47.132Z,24.20
2022-12-06T10:03:20.192Z,18.93
2022-12-06T10:06:01.722Z,14.00
2022-12-06T10:08:53.244Z,15.03
2022-12-06T10:11:43.452Z,18.63
2022-12-06T10:14:47.158Z,55.10
2022-12-06T10:17:52.047Z,65.10
2022-12-06T10:20:23.869Z,92.70
2022-12-06T10:23:01.970Z,48.77
2022-12-06T10:25:36.962Z,43.13
2022-12-06T10:28:10.022Z,27.43
2022-12-06T10:30:50.232Z,19.97
2022-12-06T10:33:23.850Z,19.17
2022-12-06T10:35:56.022Z,16.47
2022-12-06T10:39:02.929Z,16.13
2022-12-06T10:41:44.031Z,14.97
2022-12-06T10:44:33.060Z,20.43
2022-12-06T10:47:08.710Z,18.77
2022-12-06T10:50:09.102Z,17.07
2022-12-06T10:52:46.935Z,17.33
2022-12-06T10:55:30.449Z,15.70
2022-12-06T10:58:32.378Z,17.10
2022-12-06T11:01:07.741Z,14.93
2022-12-06T11:03:40.573Z,13.87
2022-12-06T11:06:39.598Z,15.30
2022-12-06T11:09:25.596Z,16.03
2022-12-06T11:11:53.797Z,13.63
2022-12-06T11:14:33.128Z,15.07
2022-12-06T11:17:18.211Z,13.57
2022-12-06T11:19:45.017Z,16.80
2022-12-06T11:22:37.470Z,25.47
2022-12-06T11:25:28.938Z,22.30
2022-12-06T11:28:21.559Z,22.30
2022-12-06T11:30:51.592Z,17.23
2022-12-06T11:33:21.757Z,16.53
2022-12-06T11:35:48.834Z,18.23
2022-12-06T11:38:17.526Z,15.77
2022-12-06T11:40:48.308Z,19.00
2022-12-06T11:43:24.215Z,20.30
2022-12-06T11:45:51.437Z,18.63
2022-12-06T11:48:22.710Z,16.87
2022-12-06T11:50:51.446Z,14.43
2022-12-06T11:53:27.425Z,18.30
2022-12-06T11:55:58.117Z,19.23
2022-12-06T11:58:53.305Z,18.43
2022-12-06T12:01:20.779Z,18.13
2022-12-06T12:03:48.357Z,20.10
2022-12-06T12:06:29.571Z,21.40
2022-12-06T12:09:05.259Z,17.90
2022-12-06T12:11:36.546Z,24.63
2022-12-06T12:14:07.638Z,41.63
2022-12-06T12:16:44.236Z,39.80
2022-12-06T12:19:28.716Z,24.53
2022-12-06T12:21:58.891Z,21.37
2022-12-06T12:27:57.328Z,18.43
2022-12-06T12:30:37.041Z,19.17
2022-12-06T12:33:07.135Z,19.67
2022-12-06T12:35:33.911Z,17.63
2022-12-06T12:38:14.482Z,18.23
2022-12-06T12:41:12.678Z,19.17
2022-12-06T12:43:45.741Z,19.67
2022-12-06T12:46:18.083Z,19.53
2022-12-06T12:48:47.131Z,19.87
2022-12-06T12:51:35.087Z,17.20
2022-12-06T12:54:05.608Z,19.93
2022-12-06T12:56:37.291Z,20.90
2022-12-06T12:59:16.228Z,21.07
2022-12-06T13:02:05.297Z,20.77
2022-12-06T13:04:53.190Z,20.37
2022-12-06T13:07:33.580Z,22.90
2022-12-06T13:10:09.247Z,21.33
2022-12-06T13:12:43.646Z,19.43
2022-12-06T13:15:17.633Z,16.77
2022-12-06T13:17:47.921Z,18.33
2022-12-06T13:20:28.916Z,17.67
2022-12-06T13:23:00.278Z,18.43
2022-12-06T13:25:28.372Z,16.87
2022-12-06T13:28:05.167Z,16.90
2022-12-06T13:30:35.753Z,20.23
2022-12-06T13:33:20.534Z,17.77
2022-12-06T13:36:06.474Z,17.97
2022-12-06T13:38:36.749Z,19.07
2022-12-06T13:41:12.244Z,20.80
2022-12-06T13:43:40.150Z,24.17
2022-12-06T13:46:07.327Z,21.93
2022-12-06T13:48:53.081Z,25.20
2022-12-06T13:51:46.599Z,24.87
2022-12-06T13:54:13.872Z,21.40
2022-12-06T13:56:41.881Z,21.83
2022-12-06T13:59:11.764Z,35.13
2022-12-06T14:01:51.157Z,50.00
2022-12-06T14:04:24.007Z,33.97
2022-12-06T14:09:42.686Z,27.97
2022-12-06T14:12:21.778Z,24.73
2022-12-06T14:15:02.624Z,29.20
2022-12-06T14:18:01.656Z,29.37
2022-12-06T14:20:29.166Z,24.13
2022-12-06T14:22:56.474Z,29.70
2022-12-06T14:25:28.795Z,28.50
2022-12-06T14:28:12.939Z,29.47
2022-12-06T14:30:40.486Z,32.47
2022-12-06T14:33:22.368Z,33.90
2022-12-06T14:35:54.417Z,36.27
2022-12-06T14:38:28.452Z,31.47
2022-12-06T14:41:14.653Z,31.30
2022-12-06T14:43:46.300Z,27.67
2022-12-06T14:46:16.144Z,22.97
2022-12-06T14:49:03.301Z,22.70
2022-12-06T14:51:41.054Z,22.70
2022-12-06T14:54:42.546Z,24.63
2022-12-06T14:57:23.834Z,27.33
2022-12-06T15:00:26.457Z,33.97
2022-12-06T15:03:03.669Z,26.67
2022-12-06T15:05:42.040Z,21.63
2022-12-06T15:08:39.547Z,21.73
2022-12-06T15:11:45.275Z,18.07
2022-12-06T15:14:27.432Z,19.37
2022-12-06T15:17:19.284Z,21.40
2022-12-06T15:19:51.119Z,22.77
2022-12-06T15:22:24.859Z,19.87
2022-12-06T15:24:55.663Z,17.87
2022-12-06T15:27:25.026Z,16.53
2022-12-06T15:29:52.092Z,17.90
2022-12-06T15:32:21.389Z,17.37
2022-12-06T15:34:49.231Z,15.63
2022-12-06T15:40:04.652Z,15.97
2022-12-06T15:42:31.547Z,20.03
2022-12-06T15:44:58.419Z,23.00
2022-12-06T15:47:25.311Z,27.10
2022-12-06T15:49:53.971Z,27.93
2022-12-06T15:52:23.530Z,27.53
2022-12-06T15:54:50.736Z,25.57
2022-12-06T15:57:18.800Z,25.33
2022-12-06T15:59:45.904Z,22.10
2022-12-06T16:02:17.778Z,21.20
2022-12-06T16:04:45.762Z,17.83
2022-12-06T16:07:18.840Z,17.23
2022-12-06T16:09:46.902Z,16.83
2022-12-06T16:12:13.985Z,17.07
2022-12-06T16:14:40.791Z,15.67
2022-12-06T16:17:09.081Z,15.23
2022-12-06T16:19:55.370Z,15.90
2022-12-06T16:22:42.205Z,14.77
2022-12-06T16:25:09.308Z,15.37
2022-12-06T16:27:36.189Z,15.87
2022-12-06T16:30:04.952Z,15.40
2022-12-06T16:32:31.693Z,15.93
2022-12-06T16:34:58.882Z,22.37
2022-12-06T16:37:26.086Z,28.23
2022-12-06T16:39:52.838Z,37.67
2022-12-06T16:42:19.866Z,42.67
2022-12-06T16:44:52.990Z,47.43
2022-12-06T16:49:47.757Z,41.43
2022-12-06T16:52:15.900Z,37.80
2022-12-06T16:54:45.329Z,26.47
2022-12-06T16:57:13.253Z,21.50
2022-12-06T16:59:42.075Z,23.33
2022-12-06T17:02:28.776Z,23.43
2022-12-06T17:04:57.339Z,24.17
2022-12-06T17:07:24.645Z,23.70
2022-12-06T17:09:54.212Z,24.93
2022-12-06T17:12:21.239Z,24.37
2022-12-06T17:14:49.680Z,24.40
2022-12-06T17:17:20.297Z,27.90
2022-12-06T17:19:48.453Z,33.50
2022-12-06T17:22:16.387Z,31.40
2022-12-06T17:24:43.751Z,34.37
2022-12-06T17:27:13.851Z,35.33
2022-12-06T17:29:42.507Z,34.23
2022-12-06T17:32:09.994Z,33.50
2022-12-06T17:34:37.603Z,33.43
2022-12-06T17:37:06.079Z,32.40
2022-12-06T17:39:33.113Z,33.80
2022-12-06T17:42:18.863Z,37.27
2022-12-06T17:44:46.660Z,34.37
2022-12-06T17:47:13.671Z,32.73
2022-12-06T17:49:41.606Z,33.70
2022-12-06T17:52:10.240Z,32.47
2022-12-06T17:54:37.132Z,35.77
2022-12-06T17:57:03.901Z,36.27
2022-12-06T17:59:33.031Z,33.90
2022-12-06T18:02:17.913Z,33.70
2022-12-06T18:07:34.338Z,32.97
2022-12-06T18:10:01.204Z,31.07
2022-12-06T18:12:31.841Z,28.80
2022-12-06T18:15:00.891Z,31.67
2022-12-06T18:17:28.253Z,30.40
2022-12-06T18:19:55.014Z,32.50
2022-12-06T18:22:21.834Z,29.63
2022-12-06T18:24:48.678Z,28.97
2022-12-06T18:27:15.553Z,29.20
2022-12-06T18:29:42.399Z,27.97
2022-12-06T18:32:09.356Z,29.87
2022-12-06T18:34:36.999Z,30.13
2022-12-06T18:37:03.868Z,28.97
2022-12-06T18:39:30.759Z,29.87
2022-12-06T18:41:57.536Z,38.73
2022-12-06T18:44:24.453Z,38.17
2022-12-06T18:46:51.271Z,52.77
2022-12-06T18:49:18.416Z,55.60
2022-12-06T18:51:45.211Z,50.23
2022-12-06T18:54:14.003Z,48.47
2022-12-06T18:56:41.402Z,51.03
2022-12-06T18:59:08.693Z,47.27
2022-12-06T19:01:37.641Z,45.40
2022-12-06T19:04:06.164Z,53.77
2022-12-06T19:06:36.672Z,49.33
2022-12-06T19:09:07.444Z,45.43
2022-12-06T19:11:37.681Z,46.03
2022-12-06T19:14:05.123Z,42.57
2022-12-06T19:16:46.428Z,45.80
2022-12-06T19:19:23.616Z,41.20
2022-12-06T19:21:52.286Z,37.47
2022-12-06T19:24:22.241Z,35.73
2022-12-06T19:26:52.047Z,38.07
2022-12-06T19:29:19.208Z,32.47
2022-12-06T19:31:46.073Z,40.07
2022-12-06T19:34:24.760Z,46.30
2022-12-06T19:36:53.186Z,42.50
2022-12-06T19:39:20.644Z,39.90
2022-12-06T19:42:06.600Z,45.73
2022-12-06T19:44:33.773Z,53.97
2022-12-06T19:47:00.974Z,52.07
2022-12-06T19:49:28.979Z,59.80
2022-12-06T19:51:56.184Z,56.10
2022-12-06T19:54:28.931Z,66.40
2022-12-06T19:56:57.903Z,55.10
2022-12-06T19:59:27.657Z,58.83
2022-12-06T20:01:54.798Z,55.70
2022-12-06T20:04:23.936Z,54.30
2022-12-06T20:06:51.975Z,50.93
2022-12-06T20:09:20.549Z,54.07
2022-12-06T20:12:03.191Z,56.93
2022-12-06T20:14:41.572Z,50.43
2022-12-06T20:17:19.194Z,56.67
2022-12-06T20:19:46.529Z,51.87
2022-12-06T20:22:14.719Z,52.27
2022-12-06T20:24:42.120Z,74.37
2022-12-06T20:27:09.229Z,75.47
2022-12-06T20:29:35.983Z,79.53
2022-12-06T20:32:03.419Z,73.97
2022-12-06T20:34:34.343Z,70.20
2022-12-06T20:37:03.802Z,67.87
2022-12-06T20:39:33.044Z,71.33
2022-12-06T20:42:01.392Z,71.00
2022-12-06T20:44:28.232Z,73.87
2022-12-06T20:46:55.335Z,71.27
2022-12-06T20:49:22.275Z,72.33
2022-12-06T20:51:52.959Z,72.70
2022-12-06T20:54:20.954Z,71.10
2022-12-06T20:56:51.404Z,75.47
2022-12-06T20:59:18.519Z,79.03
2022-12-06T21:01:45.387Z,102.23
2022-12-06T21:04:13.957Z,87.57
2022-12-06T21:06:41.167Z,91.20
2022-12-06T21:09:08.284Z,69.30
2022-12-06T21:11:35.134Z,93.40
2022-12-06T21:14:03.366Z,105.70
2022-12-06T21:16:31.806Z,83.60
2022-12-06T21:19:07.529Z,88.10
2022-12-06T21:21:37.046Z,81.40
2022-12-06T21:24:06.972Z,87.27
2022-12-06T21:26:35.198Z,82.47
2022-12-06T21:29:02.148Z,89.13
2022-12-06T21:31:35.265Z,83.87
2022-12-06T21:34:02.780Z,80.67
2022-12-06T21:36:30.064Z,74.80
2022-12-06T21:38:58.554Z,69.87
2022-12-06T21:41:25.794Z,63.53
2022-12-06T21:43:52.627Z,59.47
2022-12-06T21:46:22.787Z,61.17
2022-12-06T21:48:58.048Z,57.33
2022-12-06T21:51:27.802Z,58.17
2022-12-06T21:53:55.018Z,61.47
2022-12-06T21:56:28.419Z,62.30
2022-12-06T21:59:00.207Z,55.47
2022-12-06T22:01:29.277Z,56.70
2022-12-06T22:03:59.169Z,53.77
2022-12-06T22:06:26.966Z,53.77
2022-12-06T22:09:00.105Z,52.17
2022-12-06T22:11:28.394Z,58.07
2022-12-06T22:13:59.321Z,52.97
2022-12-06T22:16:27.133Z,49.23
2022-12-06T22:18:55.304Z,48.23
2022-12-06T22:21:26.935Z,49.57
2022-12-06T22:23:55.548Z,49.40
2022-12-06T22:26:23.988Z,48.30
2022-12-06T22:28:51.213Z,45.70
2022-12-06T22:31:20.989Z,44.60
2022-12-06T22:33:48.982Z,46.23
2022-12-06T22:36:17.908Z,47.63
2022-12-06T22:38:48.273Z,46.07
2022-12-06T22:41:15.365Z,43.50
2022-12-06T22:43:42.328Z,42.53
2022-12-06T22:46:12.301Z,41.03
2022-12-06T22:48:40.746Z,37.87
2022-12-06T22:51:15.143Z,42.67
2022-12-06T22:53:44.711Z,40.37
2022-12-06T22:56:12.484Z,34.73
2022-12-06T22:58:40.397Z,34.13
2022-12-06T23:01:16.946Z,35.23
2022-12-06T23:03:47.075Z,35.17
2022-12-06T23:06:15.798Z,32.90
2022-12-06T23:08:43.453Z,35.07
2022-12-06T23:11:16.050Z,34.30
2022-12-06T23:13:44.505Z,35.63
2022-12-06T23:16:17.190Z,36.47
2022-12-06T23:18:45.861Z,32.83
2022-12-06T23:21:32.629Z,31.13
2022-12-06T23:24:02.232Z,31.97
2022-12-06T23:26:34.606Z,30.80
2022-12-06T23:29:02.583Z,28.57
2022-12-06T23:31:31.941Z,30.77
2022-12-06T23:34:02.366Z,30.17
2022-12-06T23:36:31.767Z,28.27
2022-12-06T23:38:58.950Z,29.93
2022-12-06T23:41:28.901Z,27.70
2022-12-06T23:43:58.794Z,26.03
2022-12-06T23:46:29.420Z,22.57
2022-12-06T23:48:57.221Z,24.30
2022-12-06T23:51:27.429Z,24.60
2022-12-06T23:53:57.482Z,22.63
2022-12-06T23:56:26.867Z,21.30
2022-12-06T23:58:54.988Z,18.43
